Time;durP1;ratioP1;P1;durP2;ratioP2;P2;SDS_P1;SDS_P2;PMS_P1;PMS_P2;Temp;Humidity;BMP_temperature;BMP_pressure;BME280_temperature;BME280_humidity;BME280_pressure;Samples;Min_cycle;Max_cycle;Signal;HPM_P1;HPM_P2
2022/05/09 00:01:54;;;;;;;1.10;1.10;;;14.40;99.90;;;;;;5011027;28;20202;-62
2022/05/09 00:04:23;;;;;;;1.10;1.10;;;14.30;99.90;;;;;;5010766;28;20213;-62
2022/05/09 00:06:51;;;;;;;1.20;1.20;;;14.20;99.90;;;;;;5011288;28;20319;-62
2022/05/09 00:09:18;;;;;;;1.10;1.10;;;14.20;99.90;;;;;;5010882;28;20213;-62
2022/05/09 00:11:46;;;;;;;1.10;1.10;;;14.20;99.90;;;;;;5010851;28;20260;-62
2022/05/09 00:14:13;;;;;;;1.08;1.08;;;14.20;99.90;;;;;;5011005;28;20237;-61
2022/05/09 00:16:41;;;;;;;1.17;1.17;;;14.20;99.90;;;;;;5013367;28;20229;-62
2022/05/09 00:19:10;;;;;;;1.20;1.20;;;14.30;99.90;;;;;;5012357;28;20744;-62
2022/05/09 00:21:41;;;;;;;1.40;1.30;;;14.20;99.90;;;;;;5010361;28;20216;-61
2022/05/09 00:24:12;;;;;;;1.20;1.20;;;14.10;99.90;;;;;;5004744;28;20603;-62
2022/05/09 00:26:40;;;;;;;1.30;1.30;;;14.10;99.90;;;;;;5004380;28;20619;-62
2022/05/09 00:29:09;;;;;;;1.08;1.08;;;14.00;99.90;;;;;;4998565;28;20341;-62
2022/05/09 00:31:36;;;;;;;1.20;1.20;;;13.90;99.90;;;;;;5006023;28;20275;-62
2022/05/09 00:34:03;;;;;;;1.10;1.10;;;13.90;99.90;;;;;;4996009;28;20234;-64
2022/05/09 00:36:31;;;;;;;1.20;1.20;;;13.80;99.90;;;;;;5000320;28;21021;-62
2022/05/09 00:39:01;;;;;;;1.20;1.20;;;13.90;99.90;;;;;;4998554;28;20202;-61
2022/05/09 00:41:37;;;;;;;1.13;1.13;;;14.00;99.90;;;;;;4999149;28;20206;-62
2022/05/09 00:44:09;;;;;;;1.20;1.10;;;13.90;99.90;;;;;;4998339;28;20233;-63
2022/05/09 00:46:37;;;;;;;1.02;1.02;;;13.90;99.90;;;;;;5003276;28;20213;-61
2022/05/09 00:49:15;;;;;;;1.20;1.20;;;13.90;99.90;;;;;;4995331;28;20784;-61
2022/05/09 00:51:45;;;;;;;1.00;1.00;;;13.90;99.90;;;;;;5006887;28;20224;-62
2022/05/09 00:54:13;;;;;;;1.10;1.10;;;13.90;99.90;;;;;;5009408;28;20206;-63
2022/05/09 00:56:44;;;;;;;1.20;1.20;;;13.80;99.90;;;;;;5000647;28;20256;-61
2022/05/09 00:59:15;;;;;;;1.20;1.20;;;13.70;99.90;;;;;;5000628;28;20596;-61
2022/05/09 01:01:42;;;;;;;1.00;1.00;;;13.60;99.90;;;;;;5013345;28;20224;-61
2022/05/09 01:04:12;;;;;;;1.30;1.25;;;13.60;99.90;;;;;;5014937;28;20664;-60
2022/05/09 01:06:39;;;;;;;1.30;1.30;;;13.50;99.90;;;;;;4998780;28;20257;-60
2022/05/09 01:09:07;;;;;;;1.33;1.33;;;13.40;99.90;;;;;;5000361;28;20206;-61
2022/05/09 01:11:37;;;;;;;1.15;1.15;;;13.30;99.90;;;;;;5008579;28;20308;-61
2022/05/09 01:14:10;;;;;;;1.13;1.13;;;13.40;99.90;;;;;;5013875;28;20212;-62
2022/05/09 01:16:39;;;;;;;1.30;1.20;;;13.40;99.90;;;;;;5013970;28;20324;-61
2022/05/09 01:19:25;;;;;;;1.02;1.02;;;13.30;99.90;;;;;;5016360;28;20292;-62
2022/05/09 01:21:54;;;;;;;1.20;1.20;;;13.30;99.90;;;;;;5021284;28;20220;-60
2022/05/09 01:24:24;;;;;;;1.10;1.10;;;13.20;99.90;;;;;;5006233;28;20286;-62
2022/05/09 01:26:51;;;;;;;1.20;1.20;;;13.20;99.90;;;;;;4998762;28;20305;-62
2022/05/09 01:29:25;;;;;;;1.33;1.27;;;13.20;99.90;;;;;;4997021;28;20297;-61
2022/05/09 01:31:54;;;;;;;1.42;1.27;;;13.10;99.90;;;;;;4998424;28;20202;-63
2022/05/09 01:34:21;;;;;;;1.25;1.25;;;13.10;99.90;;;;;;4997734;28;20222;-63
2022/05/09 01:36:54;;;;;;;1.23;1.23;;;13.10;99.90;;;;;;4996384;28;20230;-60
2022/05/09 01:39:24;;;;;;;1.20;1.20;;;13.10;99.90;;;;;;4995507;28;20212;-61
2022/05/09 01:41:51;;;;;;;1.10;1.10;;;13.10;99.90;;;;;;4995799;28;20770;-62
2022/05/09 01:44:19;;;;;;;1.23;1.23;;;13.20;99.90;;;;;;4998711;28;20198;-61
2022/05/09 01:49:34;;;;;;;1.10;1.10;;;13.10;99.90;;;;;;5000227;28;20192;-61
2022/05/09 01:52:03;;;;;;;1.20;1.20;;;13.10;99.90;;;;;;5013434;28;20213;-60
2022/05/09 01:54:32;;;;;;;1.20;1.20;;;13.00;99.90;;;;;;5013409;28;20283;-63
2022/05/09 01:56:59;;;;;;;1.20;1.20;;;13.00;99.90;;;;;;5013519;28;20320;-62
2022/05/09 01:59:26;;;;;;;1.33;1.27;;;13.10;99.90;;;;;;5012191;28;20207;-62
2022/05/09 02:01:55;;;;;;;1.60;1.40;;;13.10;99.90;;;;;;5012880;28;20211;-62
2022/05/09 02:04:23;;;;;;;1.47;1.37;;;13.10;99.90;;;;;;5013152;28;20284;-61
2022/05/09 02:06:51;;;;;;;1.42;1.35;;;13.00;99.90;;;;;;5013537;28;20239;-62
2022/05/09 02:09:17;;;;;;;1.20;1.20;;;13.10;99.90;;;;;;5012455;28;20244;-62
2022/05/09 02:11:46;;;;;;;1.58;1.48;;;13.10;99.90;;;;;;5012589;28;20208;-62
2022/05/09 02:14:12;;;;;;;1.23;1.23;;;13.00;99.90;;;;;;5012501;28;20240;-62
2022/05/09 02:16:39;;;;;;;1.35;1.35;;;13.10;99.90;;;;;;5012584;28;20324;-60
2022/05/09 02:19:07;;;;;;;1.20;1.20;;;13.00;99.90;;;;;;5012633;28;20754;-61
2022/05/09 02:21:34;;;;;;;1.20;1.20;;;13.10;99.90;;;;;;5011350;28;20212;-61
2022/05/09 02:24:02;;;;;;;1.23;1.23;;;13.10;99.90;;;;;;5012138;28;20206;-63
2022/05/09 02:26:29;;;;;;;1.30;1.30;;;13.20;99.90;;;;;;5012040;28;20225;-62
2022/05/09 02:28:57;;;;;;;1.40;1.40;;;13.20;99.90;;;;;;5012212;28;20320;-62
2022/05/09 02:31:26;;;;;;;1.20;1.20;;;13.10;99.90;;;;;;5011210;28;20695;-63
2022/05/09 02:33:53;;;;;;;1.50;1.40;;;13.00;99.90;;;;;;5010201;28;20292;-63
2022/05/09 02:36:20;;;;;;;1.30;1.30;;;13.00;99.90;;;;;;5002107;28;20292;-61
2022/05/09 02:38:47;;;;;;;1.25;1.25;;;12.90;99.90;;;;;;4999433;28;20206;-62
2022/05/09 02:41:13;;;;;;;1.30;1.30;;;13.00;99.90;;;;;;5001442;28;20202;-62
2022/05/09 02:43:40;;;;;;;1.40;1.30;;;13.00;99.90;;;;;;4997227;28;20237;-61
2022/05/09 02:46:09;;;;;;;1.35;1.35;;;13.00;99.90;;;;;;4995137;28;20237;-62
2022/05/09 02:48:37;;;;;;;1.30;1.30;;;13.00;99.90;;;;;;4996809;28;20237;-63
2022/05/09 02:51:05;;;;;;;1.20;1.20;;;13.00;99.90;;;;;;4998151;28;20297;-62
2022/05/09 02:53:32;;;;;;;1.10;1.10;;;13.00;99.90;;;;;;4998412;28;20232;-61
2022/05/09 02:55:59;;;;;;;1.27;1.10;;;13.10;99.90;;;;;;5001500;28;20232;-61
2022/05/09 02:58:26;;;;;;;1.13;1.13;;;13.10;99.90;;;;;;5005733;28;20372;-61
2022/05/09 03:00:52;;;;;;;1.40;1.40;;;13.10;99.90;;;;;;5010456;28;20233;-63
2022/05/09 03:06:05;;;;;;;1.10;1.10;;;13.10;99.90;;;;;;5011228;28;20211;-62
2022/05/09 03:08:32;;;;;;;1.23;1.23;;;13.10;99.90;;;;;;5011853;28;20185;-62
2022/05/09 03:10:59;;;;;;;1.10;1.10;;;13.10;99.90;;;;;;5015683;28;20276;-62
2022/05/09 03:13:26;;;;;;;1.20;1.20;;;13.00;99.90;;;;;;5016767;28;20690;-62
2022/05/09 03:15:53;;;;;;;1.40;1.33;;;13.00;99.90;;;;;;5014547;28;20221;-62
2022/05/09 03:18:23;;;;;;;1.20;1.20;;;13.00;99.90;;;;;;5011961;28;20232;-61
2022/05/09 03:20:51;;;;;;;1.00;1.00;;;13.00;99.90;;;;;;5010623;28;20259;-61
2022/05/09 03:23:18;;;;;;;1.33;1.33;;;12.90;99.90;;;;;;5011161;28;20205;-62
2022/05/09 03:25:45;;;;;;;1.50;1.40;;;13.00;99.90;;;;;;5011629;28;20205;-61
2022/05/09 03:28:15;;;;;;;1.33;1.23;;;12.90;99.90;;;;;;5011531;28;20229;-62
2022/05/09 03:30:44;;;;;;;1.20;1.20;;;12.90;99.90;;;;;;5011052;28;20208;-62
2022/05/09 03:33:12;;;;;;;1.20;1.20;;;12.80;99.90;;;;;;5011630;28;20201;-61
2022/05/09 03:35:41;;;;;;;1.08;1.08;;;12.90;99.90;;;;;;5011179;28;20217;-62
2022/05/09 03:38:07;;;;;;;1.20;1.20;;;13.00;99.90;;;;;;5011239;28;20257;-63
2022/05/09 03:40:35;;;;;;;1.20;1.20;;;13.00;99.90;;;;;;5010631;28;20241;-62
2022/05/09 03:43:02;;;;;;;1.30;1.20;;;13.00;99.90;;;;;;5011343;28;20309;-64
2022/05/09 03:45:29;;;;;;;1.27;1.25;;;12.90;99.90;;;;;;5011320;28;20301;-62
2022/05/09 03:47:57;;;;;;;1.30;1.30;;;12.90;99.90;;;;;;5011151;28;20320;-60
2022/05/09 03:50:24;;;;;;;1.05;1.05;;;12.80;99.90;;;;;;5010662;28;20209;-64
2022/05/09 03:52:52;;;;;;;1.20;1.20;;;12.80;99.90;;;;;;5012419;28;20217;-61
2022/05/09 03:55:19;;;;;;;1.17;1.17;;;12.90;99.90;;;;;;5012678;28;20206;-61
2022/05/09 03:57:48;;;;;;;1.10;1.10;;;12.90;99.90;;;;;;5012987;28;20269;-61
2022/05/09 04:00:16;;;;;;;1.20;1.20;;;12.90;99.90;;;;;;5014517;28;20273;-62
2022/05/09 04:02:43;;;;;;;1.10;1.10;;;12.90;99.90;;;;;;5016004;28;20209;-61
2022/05/09 04:05:16;;;;;;;1.20;1.20;;;12.90;99.90;;;;;;5014567;28;20205;-63
2022/05/09 04:07:44;;;;;;;1.40;1.40;;;12.90;99.90;;;;;;5014682;28;20244;-61
2022/05/09 04:10:13;;;;;;;1.13;1.13;;;12.90;99.90;;;;;;5014228;28;20535;-61
2022/05/09 04:12:41;;;;;;;1.00;1.00;;;13.00;99.90;;;;;;5014398;28;20690;-61
2022/05/09 04:17:53;;;;;;;1.50;1.40;;;12.90;99.90;;;;;;5014976;28;20220;-63
2022/05/09 04:20:20;;;;;;;1.10;1.10;;;13.00;99.90;;;;;;5014421;28;20245;-61
2022/05/09 04:22:47;;;;;;;1.15;1.15;;;13.00;99.90;;;;;;5014823;28;20208;-62
2022/05/09 04:25:17;;;;;;;1.30;1.30;;;13.10;99.90;;;;;;5019313;28;20702;-62
2022/05/09 04:27:44;;;;;;;1.02;1.02;;;13.20;99.90;;;;;;5019350;28;20221;-64
2022/05/09 04:30:12;;;;;;;1.20;1.20;;;13.20;99.90;;;;;;5019568;28;20201;-62
2022/05/09 04:32:40;;;;;;;1.20;1.20;;;13.10;99.90;;;;;;5021765;28;20284;-61
2022/05/09 04:35:09;;;;;;;1.30;1.30;;;13.10;99.90;;;;;;5017164;28;20209;-60
2022/05/09 04:37:37;;;;;;;1.25;1.25;;;13.10;99.90;;;;;;5016635;28;20237;-61
2022/05/09 04:40:05;;;;;;;1.10;1.10;;;13.10;99.90;;;;;;5015148;28;20232;-63
2022/05/09 04:42:34;;;;;;;1.42;1.42;;;13.20;99.90;;;;;;5018073;28;20232;-61
2022/05/09 04:45:00;;;;;;;1.30;1.30;;;13.20;99.90;;;;;;5016649;28;20710;-61
2022/05/09 04:47:28;;;;;;;1.30;1.30;;;13.20;99.90;;;;;;5016405;28;20308;-61
2022/05/09 04:49:55;;;;;;;1.20;1.20;;;13.20;99.90;;;;;;5016234;28;20241;-60
2022/05/09 04:52:22;;;;;;;1.25;1.25;;;13.30;99.90;;;;;;5016420;28;20296;-62
2022/05/09 04:54:48;;;;;;;1.30;1.30;;;13.30;99.90;;;;;;5016842;28;20276;-61
2022/05/09 04:57:15;;;;;;;1.38;1.33;;;13.30;99.90;;;;;;5016706;28;20229;-62
2022/05/09 04:59:44;;;;;;;1.48;1.48;;;13.30;99.90;;;;;;5016498;28;20201;-63
2022/05/09 05:02:10;;;;;;;1.30;1.30;;;13.30;99.90;;;;;;5015073;28;20205;-63
2022/05/09 05:04:37;;;;;;;1.20;1.20;;;13.40;99.90;;;;;;5018771;28;20233;-62
2022/05/09 05:07:04;;;;;;;1.45;1.40;;;13.40;99.90;;;;;;5023575;28;20225;-62
2022/05/09 05:09:32;;;;;;;1.50;1.40;;;13.50;99.90;;;;;;5031820;28;20229;-59
2022/05/09 05:11:59;;;;;;;1.70;1.60;;;13.50;99.90;;;;;;5023840;28;20198;-60
2022/05/09 05:14:26;;;;;;;1.23;1.23;;;13.60;99.90;;;;;;5021635;28;20213;-61
2022/05/09 05:17:00;;;;;;;1.53;1.30;;;13.70;99.90;;;;;;5016386;28;20300;-62
2022/05/09 05:19:28;;;;;;;1.50;1.40;;;13.90;99.90;;;;;;5015631;28;20245;-61
2022/05/09 05:21:55;;;;;;;1.30;1.30;;;14.10;99.90;;;;;;5015426;28;20289;-64
2022/05/09 05:24:21;;;;;;;1.15;1.15;;;14.20;99.90;;;;;;5015133;28;20228;-62
2022/05/09 05:26:48;;;;;;;1.30;1.30;;;14.40;99.90;;;;;;5016345;28;20249;-63
2022/05/09 05:29:15;;;;;;;1.40;1.30;;;14.60;99.90;;;;;;5013851;28;20201;-61
2022/05/09 05:31:43;;;;;;;1.40;1.40;;;14.80;99.90;;;;;;5013598;28;20240;-61
2022/05/09 05:34:11;;;;;;;1.15;1.15;;;14.80;99.90;;;;;;5014308;28;20208;-63
2022/05/09 05:36:38;;;;;;;1.47;1.37;;;15.00;99.90;;;;;;5012140;28;20229;-60
2022/05/09 05:39:05;;;;;;;1.38;1.30;;;15.10;99.90;;;;;;5000257;28;20736;-62
2022/05/09 05:41:33;;;;;;;1.33;1.30;;;15.10;99.90;;;;;;5003946;28;20285;-62
2022/05/09 05:44:00;;;;;;;1.50;1.43;;;15.20;99.90;;;;;;5001035;28;20227;-63
2022/05/09 05:46:27;;;;;;;1.30;1.30;;;15.50;99.90;;;;;;5000234;28;20300;-63
2022/05/09 05:48:54;;;;;;;1.20;1.20;;;15.70;99.90;;;;;;5013024;28;20237;-61
2022/05/09 05:51:22;;;;;;;1.55;1.40;;;15.80;99.90;;;;;;5011780;28;20236;-60
2022/05/09 05:53:49;;;;;;;1.30;1.30;;;15.90;99.90;;;;;;5012716;28;20328;-62
2022/05/09 05:56:16;;;;;;;1.38;1.38;;;16.00;99.90;;;;;;5012194;28;20672;-60
2022/05/09 05:58:43;;;;;;;1.67;1.57;;;16.10;99.90;;;;;;5012660;28;20289;-62
2022/05/09 06:01:10;;;;;;;1.43;1.43;;;16.20;99.90;;;;;;5012188;28;20387;-63
2022/05/09 06:03:37;;;;;;;1.73;1.63;;;16.30;99.90;;;;;;5013527;28;20627;-60
2022/05/09 06:06:04;;;;;;;1.70;1.60;;;16.30;99.90;;;;;;5012181;28;20212;-62
2022/05/09 06:08:32;;;;;;;1.70;1.60;;;16.40;99.90;;;;;;5012571;28;20296;-62
2022/05/09 06:10:59;;;;;;;1.70;1.60;;;16.40;99.90;;;;;;5011850;28;20632;-61
2022/05/09 06:13:25;;;;;;;1.55;1.50;;;16.40;99.90;;;;;;5012106;28;20212;-62
2022/05/09 06:15:52;;;;;;;1.60;1.50;;;16.40;99.90;;;;;;5012584;28;20240;-62
2022/05/09 06:18:19;;;;;;;1.30;1.30;;;16.40;99.90;;;;;;5012140;28;20304;-60
2022/05/09 06:20:46;;;;;;;1.60;1.50;;;16.40;99.90;;;;;;5011785;28;20283;-62
2022/05/09 06:23:15;;;;;;;1.70;1.60;;;16.30;99.90;;;;;;5016701;28;20867;-61
2022/05/09 06:25:46;;;;;;;1.57;1.47;;;16.30;99.90;;;;;;5012316;28;20225;-61
2022/05/09 06:28:14;;;;;;;1.60;1.50;;;16.30;99.90;;;;;;5012176;28;20283;-60
2022/05/09 06:30:41;;;;;;;1.40;1.40;;;16.30;99.90;;;;;;5011484;28;20263;-62
2022/05/09 06:33:09;;;;;;;2.03;1.67;;;16.30;99.90;;;;;;5011603;28;20256;-61
2022/05/09 06:35:43;;;;;;;1.83;1.73;;;16.40;99.90;;;;;;5011769;28;20204;-62
2022/05/09 06:38:14;;;;;;;1.47;1.43;;;16.40;99.90;;;;;;5007905;28;20220;-63
2022/05/09 06:40:41;;;;;;;1.67;1.58;;;16.40;99.90;;;;;;5014557;28;20205;-62
2022/05/09 06:43:09;;;;;;;1.77;1.67;;;16.60;99.90;;;;;;5019988;28;20203;-61
2022/05/09 06:45:37;;;;;;;1.80;1.70;;;16.60;99.90;;;;;;5027783;28;20193;-63
2022/05/09 06:48:05;;;;;;;1.40;1.40;;;16.60;99.90;;;;;;5024400;28;20268;-62
2022/05/09 06:50:34;;;;;;;1.67;1.57;;;16.70;99.90;;;;;;5011296;28;20215;-61
2022/05/09 06:53:02;;;;;;;1.60;1.50;;;16.70;99.90;;;;;;5011405;28;20214;-63
2022/05/09 06:55:29;;;;;;;1.70;1.60;;;16.80;99.90;;;;;;5011762;28;20211;-63
2022/05/09 06:57:56;;;;;;;1.40;1.40;;;16.80;99.90;;;;;;5010188;28;20233;-60
2022/05/09 07:00:26;;;;;;;1.63;1.52;;;16.90;99.90;;;;;;5010297;28;20264;-61
2022/05/09 07:02:53;;;;;;;1.52;1.50;;;17.10;99.90;;;;;;5011571;28;20211;-60
2022/05/09 07:05:21;;;;;;;1.70;1.70;;;17.00;99.90;;;;;;5010917;28;20209;-61
2022/05/09 07:07:49;;;;;;;1.65;1.55;;;17.00;99.90;;;;;;5011209;28;20302;-60
2022/05/09 07:10:17;;;;;;;1.80;1.70;;;17.00;99.90;;;;;;5010981;28;20205;-62
2022/05/09 07:12:45;;;;;;;1.90;1.80;;;17.10;99.90;;;;;;5011411;28;20227;-60
2022/05/09 07:15:14;;;;;;;1.63;1.60;;;17.20;99.90;;;;;;5011520;28;21000;-61
2022/05/09 07:17:42;;;;;;;1.60;1.50;;;17.30;99.90;;;;;;5011342;28;20334;-60
2022/05/09 07:20:10;;;;;;;1.52;1.50;;;17.50;99.90;;;;;;5010565;28;20256;-61
2022/05/09 07:22:37;;;;;;;1.98;1.88;;;17.60;99.90;;;;;;5011507;28;20241;-60
2022/05/09 07:25:05;;;;;;;1.70;1.60;;;17.60;99.90;;;;;;5011340;28;20211;-63
2022/05/09 07:27:32;;;;;;;1.90;1.80;;;17.60;99.90;;;;;;5011567;28;20727;-62
2022/05/09 07:29:59;;;;;;;1.90;1.80;;;17.80;99.90;;;;;;5011389;28;20297;-61
2022/05/09 07:32:25;;;;;;;1.90;1.80;;;17.90;99.90;;;;;;5012033;28;20288;-62
2022/05/09 07:34:54;;;;;;;1.70;1.70;;;17.90;99.90;;;;;;5013804;28;20296;-61
2022/05/09 07:37:21;;;;;;;1.80;1.70;;;17.80;99.90;;;;;;5015581;28;20228;-62
2022/05/09 07:39:48;;;;;;;1.60;1.50;;;18.00;99.90;;;;;;5014438;28;20586;-63
2022/05/09 07:42:15;;;;;;;1.75;1.70;;;18.10;99.90;;;;;;5015301;28;20217;-61
2022/05/09 07:44:42;;;;;;;1.90;1.80;;;18.20;99.90;;;;;;5015007;28;20225;-60
2022/05/09 07:47:09;;;;;;;1.67;1.57;;;18.20;99.90;;;;;;5015215;28;20251;-60
2022/05/09 07:49:36;;;;;;;2.00;1.90;;;18.20;99.90;;;;;;5014614;28;20655;-61
2022/05/09 07:52:05;;;;;;;1.70;1.60;;;18.40;99.90;;;;;;5015300;28;20209;-62
2022/05/09 07:54:32;;;;;;;1.67;1.58;;;18.40;99.90;;;;;;5015130;28;20200;-62
2022/05/09 07:56:59;;;;;;;1.73;1.63;;;18.50;99.90;;;;;;5015254;28;20233;-62
2022/05/09 07:59:26;;;;;;;1.50;1.50;;;18.70;99.90;;;;;;5014849;28;20207;-62
2022/05/09 08:01:53;;;;;;;1.67;1.57;;;18.80;99.90;;;;;;5014814;28;20288;-60
2022/05/09 08:04:20;;;;;;;1.60;1.60;;;18.90;99.90;;;;;;5014855;28;20296;-61
2022/05/09 08:06:47;;;;;;;1.70;1.60;;;19.00;99.90;;;;;;5014564;28;20745;-62
2022/05/09 08:09:15;;;;;;;1.65;1.55;;;19.20;99.90;;;;;;5014776;28;20210;-60
2022/05/09 08:11:44;;;;;;;1.70;1.60;;;19.20;99.90;;;;;;5014900;28;20300;-60
2022/05/09 08:14:12;;;;;;;1.75;1.65;;;19.30;99.90;;;;;;5014646;28;20212;-61
2022/05/09 08:16:40;;;;;;;1.60;1.60;;;19.40;99.90;;;;;;5014533;28;20237;-61
2022/05/09 08:19:07;;;;;;;1.50;1.50;;;19.50;99.90;;;;;;5014887;28;20301;-61
2022/05/09 08:21:36;;;;;;;1.50;1.50;;;19.70;99.90;;;;;;5014055;28;20211;-60
2022/05/09 08:24:03;;;;;;;1.60;1.60;;;19.80;99.90;;;;;;5014333;28;20679;-61
2022/05/09 08:26:32;;;;;;;2.08;1.90;;;19.80;99.90;;;;;;5012232;28;20304;-63
2022/05/09 08:28:58;;;;;;;1.43;1.43;;;19.90;99.90;;;;;;5014648;28;20220;-62
2022/05/09 08:31:25;;;;;;;1.60;1.50;;;20.00;99.90;;;;;;5013877;28;20304;-60
2022/05/09 08:33:56;;;;;;;1.50;1.50;;;20.00;99.90;;;;;;5013848;28;20567;-61
2022/05/09 08:39:09;;;;;;;1.50;1.50;;;20.10;99.90;;;;;;5014369;28;20255;-60
2022/05/09 08:41:50;;;;;;;1.67;1.58;;;20.40;99.90;;;;;;5013246;28;20667;-60
2022/05/09 08:44:27;;;;;;;1.45;1.45;;;20.40;99.90;;;;;;5013823;28;20255;-61
2022/05/09 08:47:08;;;;;;;1.60;1.60;;;20.60;99.90;;;;;;5012039;28;20813;-60
2022/05/09 08:49:46;;;;;;;1.85;1.73;;;20.60;99.90;;;;;;5013024;28;20194;-61
2022/05/09 08:52:22;;;;;;;1.40;1.40;;;20.70;99.90;;;;;;5013939;28;20659;-61
2022/05/09 08:54:50;;;;;;;1.50;1.50;;;20.80;99.90;;;;;;5013615;28;20763;-61
2022/05/09 08:57:23;;;;;;;1.30;1.30;;;20.80;99.90;;;;;;5013701;28;20225;-63
2022/05/09 08:59:56;;;;;;;1.80;1.70;;;20.80;99.90;;;;;;5013441;28;20739;-61
2022/05/09 09:02:30;;;;;;;1.60;1.50;;;21.00;99.90;;;;;;5014179;28;20272;-62
2022/05/09 09:04:58;;;;;;;1.97;1.87;;;21.00;99.90;;;;;;5013144;28;20201;-62
2022/05/09 09:07:53;;;;;;;1.60;1.50;;;21.00;99.90;;;;;;5013525;28;20834;-61
2022/05/09 09:10:26;;;;;;;1.70;1.60;;;21.20;99.90;;;;;;5003707;28;20237;-60
2022/05/09 09:13:08;;;;;;;1.40;1.40;;;21.30;99.90;;;;;;5013534;28;20216;-60
2022/05/09 09:15:44;;;;;;;1.40;1.40;;;21.20;99.90;;;;;;5013708;28;20352;-61
2022/05/09 09:18:24;;;;;;;1.33;1.30;;;21.40;99.90;;;;;;5013310;28;20599;-62
2022/05/09 09:21:00;;;;;;;1.80;1.70;;;21.60;99.90;;;;;;5013556;28;20208;-62
2022/05/09 09:23:43;;;;;;;1.42;1.42;;;21.70;99.90;;;;;;5013054;28;20189;-61
2022/05/09 09:26:20;;;;;;;1.40;1.40;;;21.80;99.90;;;;;;5013668;28;20240;-62
2022/05/09 09:28:52;;;;;;;1.50;1.40;;;21.80;99.90;;;;;;5014023;28;20259;-61
2022/05/09 09:31:25;;;;;;;1.60;1.50;;;21.70;99.90;;;;;;5013477;28;20706;-61
2022/05/09 09:33:58;;;;;;;1.48;1.48;;;21.70;99.90;;;;;;5013637;28;20562;-61
2022/05/09 09:36:32;;;;;;;1.85;1.50;;;21.90;99.90;;;;;;5013902;28;20336;-61
2022/05/09 09:39:07;;;;;;;1.60;1.50;;;21.80;99.90;;;;;;5013603;28;20647;-62
2022/05/09 09:41:36;;;;;;;1.40;1.40;;;21.80;99.90;;;;;;5012898;28;20205;-61
2022/05/09 09:44:08;;;;;;;1.67;1.60;;;21.90;99.90;;;;;;5008552;28;20202;-61
2022/05/09 09:46:56;;;;;;;1.63;1.55;;;21.90;99.90;;;;;;5012420;28;20300;-61
2022/05/09 09:49:24;;;;;;;1.52;1.50;;;21.90;99.90;;;;;;5012182;28;20232;-63
2022/05/09 09:51:51;;;;;;;1.80;1.70;;;22.10;99.90;;;;;;5023551;28;20205;-61
2022/05/09 09:54:22;;;;;;;1.70;1.60;;;22.10;99.90;;;;;;5032621;28;20254;-61
2022/05/09 09:56:49;;;;;;;1.60;1.50;;;22.40;99.90;;;;;;5031969;28;20229;-60
2022/05/09 09:59:21;;;;;;;1.50;1.50;;;22.40;99.90;;;;;;5031181;28;20319;-60
2022/05/09 10:02:04;;;;;;;1.45;1.45;;;22.50;99.90;;;;;;5032393;28;20636;-62
2022/05/09 10:04:31;;;;;;;1.55;1.45;;;22.40;99.90;;;;;;5032355;28;20188;-61
2022/05/09 10:07:06;;;;;;;1.60;1.55;;;22.50;99.90;;;;;;5032126;28;20256;-62
2022/05/09 10:09:39;;;;;;;1.90;1.80;;;22.80;99.90;;;;;;5031803;28;20212;-61
2022/05/09 10:12:22;;;;;;;1.60;1.50;;;22.80;99.90;;;;;;5032667;28;20192;-62
2022/05/09 10:14:52;;;;;;;1.58;1.50;;;22.80;99.90;;;;;;5032294;28;20200;-63
2022/05/09 10:17:29;;;;;;;1.63;1.52;;;22.70;99.90;;;;;;5010487;28;20645;-62
2022/05/09 10:19:58;;;;;;;1.55;1.50;;;22.60;99.90;;;;;;4994094;28;20248;-62
2022/05/09 10:25:18;;;;;;;1.77;1.40;;;22.90;99.90;;;;;;4994271;28;20280;-62
2022/05/09 10:27:48;;;;;;;1.50;1.40;;;23.10;99.90;;;;;;5002542;28;20221;-63
2022/05/09 10:30:34;;;;;;;1.42;1.42;;;23.30;99.90;;;;;;4996125;28;20667;-63
2022/05/09 10:33:08;;;;;;;1.48;1.45;;;23.50;99.90;;;;;;4994531;28;20324;-62
2022/05/09 10:35:40;;;;;;;1.75;1.65;;;23.50;99.90;;;;;;4999319;28;20200;-63
2022/05/09 10:38:12;;;;;;;1.63;1.52;;;23.40;99.90;;;;;;4995676;28;20314;-61
2022/05/09 10:40:44;;;;;;;1.60;1.50;;;23.40;99.90;;;;;;4995947;28;20289;-62
2022/05/09 10:43:25;;;;;;;1.40;1.40;;;23.70;99.90;;;;;;5001357;28;20687;-61
2022/05/09 10:45:55;;;;;;;1.40;1.40;;;23.70;99.90;;;;;;5002082;28;20296;-61
2022/05/09 10:48:29;;;;;;;2.45;1.30;;;23.80;99.90;;;;;;4995738;28;20296;-60
2022/05/09 10:51:00;;;;;;;1.50;1.40;;;24.00;99.90;;;;;;4999385;28;20205;-60
2022/05/09 10:53:35;;;;;;;1.20;1.20;;;24.20;99.90;;;;;;5011451;28;20292;-61
2022/05/09 10:56:07;;;;;;;1.40;1.30;;;24.10;99.90;;;;;;5011776;28;20732;-62
2022/05/09 10:58:42;;;;;;;1.67;1.58;;;23.90;99.90;;;;;;5011895;28;20241;-60
2022/05/09 11:01:16;;;;;;;1.50;1.50;;;23.70;99.90;;;;;;5007400;28;20201;-61
2022/05/09 11:03:44;;;;;;;1.60;1.50;;;23.90;99.90;;;;;;5002836;28;20695;-60
2022/05/09 11:06:20;;;;;;;1.40;1.30;;;24.00;99.90;;;;;;4998081;28;20215;-61
2022/05/09 11:09:16;;;;;;;1.55;1.45;;;24.00;99.90;;;;;;5000980;28;20243;-61
2022/05/09 11:11:53;;;;;;;1.50;1.50;;;24.10;99.90;;;;;;4998265;28;20201;-62
2022/05/09 11:14:33;;;;;;;1.50;1.50;;;24.30;99.90;;;;;;4997978;28;20588;-60
2022/05/09 11:17:22;;;;;;;1.70;1.60;;;24.40;99.90;;;;;;5001926;28;20317;-62
2022/05/09 11:20:06;;;;;;;1.30;1.30;;;24.40;99.90;;;;;;4999219;28;20320;-59
2022/05/09 11:22:37;;;;;;;1.50;1.50;;;24.60;99.90;;;;;;5003889;28;20225;-60
2022/05/09 11:25:22;;;;;;;1.30;1.30;;;24.40;99.90;;;;;;5002435;28;20328;-64
2022/05/09 11:27:59;;;;;;;1.40;1.40;;;24.50;99.90;;;;;;5009956;28;20604;-62
2022/05/09 11:30:32;;;;;;;1.67;1.52;;;24.40;99.90;;;;;;5008917;28;20755;-61
2022/05/09 11:33:34;;;;;;;1.40;1.40;;;24.60;99.90;;;;;;5008676;28;20217;-61
2022/05/09 11:36:07;;;;;;;4.50;1.48;;;24.80;99.90;;;;;;5009391;28;20211;-61
2022/05/09 11:38:51;;;;;;;1.40;1.40;;;24.90;99.90;;;;;;5009684;28;20209;-61
2022/05/09 11:41:39;;;;;;;1.20;1.20;;;24.20;99.90;;;;;;5009011;28;20207;-61
2022/05/09 11:44:13;;;;;;;1.30;1.30;;;24.00;99.90;;;;;;5007603;28;20284;-62
2022/05/09 11:46:52;;;;;;;1.88;1.30;;;24.50;99.90;;;;;;5006780;28;20255;-61
2022/05/09 11:49:43;;;;;;;1.30;1.30;;;24.70;99.90;;;;;;5009269;28;20568;-61
2022/05/09 11:52:17;;;;;;;2.10;1.23;;;24.60;99.90;;;;;;5004873;28;20213;-62
2022/05/09 11:54:48;;;;;;;1.23;1.23;;;24.70;99.90;;;;;;5007213;28;20212;-61
2022/05/09 11:57:21;;;;;;;1.45;1.35;;;24.60;99.90;;;;;;5009470;28;20264;-63
2022/05/09 11:59:52;;;;;;;1.05;1.05;;;24.50;99.90;;;;;;5005778;28;20674;-61
2022/05/09 12:02:45;;;;;;;1.40;1.40;;;24.30;99.90;;;;;;5008665;28;20251;-60
2022/05/09 12:05:49;;;;;;;1.30;1.30;;;24.30;99.90;;;;;;5008903;28;20210;-60
2022/05/09 12:08:18;;;;;;;1.17;1.17;;;24.10;99.90;;;;;;5008573;28;20225;-62
2022/05/09 12:10:47;;;;;;;1.45;1.45;;;24.00;99.90;;;;;;5008422;28;20197;-60
2022/05/09 12:13:15;;;;;;;1.30;1.30;;;23.80;99.90;;;;;;5009131;28;20205;-62
2022/05/09 12:15:46;;;;;;;1.10;1.10;;;23.80;99.90;;;;;;5008953;28;20197;-59
2022/05/09 12:18:34;;;;;;;3.63;1.30;;;23.80;99.90;;;;;;5008313;28;20237;-60
2022/05/09 12:21:18;;;;;;;1.10;1.10;;;23.90;99.90;;;;;;5010388;28;20595;-63
2022/05/09 12:24:34;;;;;;;1.13;1.13;;;24.20;99.90;;;;;;5013136;28;20237;-60
2022/05/09 12:27:40;;;;;;;1.10;1.10;;;24.60;99.90;;;;;;4965920;28;20257;-61
2022/05/09 12:30:44;;;;;;;1.33;1.10;;;24.80;99.90;;;;;;4968985;28;20951;-61
2022/05/09 12:33:24;;;;;;;1.30;1.20;;;25.00;99.90;;;;;;4972176;28;20342;-61
2022/05/09 12:36:02;;;;;;;1.55;1.20;;;24.90;99.90;;;;;;4953397;29;20279;-61
2022/05/09 12:38:37;;;;;;;1.10;1.10;;;24.80;99.90;;;;;;4969206;28;20222;-61
2022/05/09 12:41:26;;;;;;;0.90;0.90;;;25.00;99.90;;;;;;4971051;28;20758;-60
2022/05/09 12:44:00;;;;;;;1.20;1.20;;;25.10;99.90;;;;;;4973508;28;20233;-61
2022/05/09 12:46:35;;;;;;;0.90;0.90;;;25.10;99.90;;;;;;4990379;28;20232;-61
2022/05/09 12:49:14;;;;;;;1.52;1.10;;;25.40;99.90;;;;;;4990087;28;20209;-60
2022/05/09 12:51:48;;;;;;;0.98;0.98;;;25.80;99.90;;;;;;4989802;28;20642;-61
2022/05/09 12:54:21;;;;;;;1.10;1.10;;;26.10;99.90;;;;;;4990628;28;20197;-60
2022/05/09 12:56:51;;;;;;;1.00;1.00;;;26.10;99.90;;;;;;4990005;28;20236;-62
2022/05/09 12:59:19;;;;;;;1.10;1.10;;;26.30;99.90;;;;;;4989543;28;20887;-63
2022/05/09 13:01:54;;;;;;;0.93;0.93;;;26.50;99.90;;;;;;4997401;28;20205;-61
2022/05/09 13:04:25;;;;;;;0.85;0.85;;;26.30;99.90;;;;;;5031563;28;20262;-62
2022/05/09 13:06:54;;;;;;;0.93;0.93;;;26.50;99.90;;;;;;5031037;28;20332;-62
2022/05/09 13:09:24;;;;;;;1.10;1.10;;;26.60;99.90;;;;;;5031579;28;20600;-61
2022/05/09 13:11:56;;;;;;;1.00;1.00;;;26.80;99.90;;;;;;5032088;28;20250;-62
2022/05/09 13:14:28;;;;;;;1.00;1.00;;;26.80;99.90;;;;;;5030721;28;20219;-62
2022/05/09 13:16:58;;;;;;;0.90;0.90;;;26.60;99.90;;;;;;5029678;28;20322;-63
2022/05/09 13:19:25;;;;;;;1.10;1.10;;;26.70;99.90;;;;;;5030516;28;20332;-60
2022/05/09 13:21:53;;;;;;;1.00;1.00;;;26.70;99.90;;;;;;5013744;28;20209;-61